Date,TemperatureHighF,TemperatureAvgF,TemperatureLowF,DewpointHighF,DewpointAvgF,DewpointLowF,HumidityHigh,HumidityAvg,HumidityLow,PressureMaxIn,PressureMinIn,WindSpeedMaxMPH,WindSpeedAvgMPH,GustSpeedMaxMPH,PrecipitationSumIn
2013-1-1,24,15,8,15,6,-1,88,69,48,18.44,18.44,15,6,16,0.00
2013-1-2,34,20,6,18,9,-2,78,62,44,18.44,18.44,15,7,15,0.00
2013-1-3,39,27,13,28,21,7,100,78,58,18.44,18.44,12,4,12,0.00
2013-1-4,40,25,11,23,16,7,100,71,46,18.44,18.44,20,7,22,0.00
2013-1-5,42,34,27,36,27,18,100,75,60,18.44,18.44,19,9,19,0.00
2013-1-6,36,29,23,30,18,9,86,65,44,18.44,18.44,20,7,20,0.00
2013-1-7,45,33,23,22,20,17,88,60,40,18.44,18.44,20,8,21,0.00
2013-1-8,50,40,32,26,22,18,62,48,34,18.44,18.44,16,8,16,0.00
2013-1-9,54,41,33,34,28,20,100,61,36,18.44,18.44,11,4,12,0.00
2013-1-10,47,41,36,47,33,19,100,77,40,18.44,18.44,15,5,15,0.39
2013-1-11,60,53,46,52,44,38,100,75,48,18.44,18.44,25,11,25,0.00
2013-1-12,56,38,23,38,25,15,100,61,32,18.44,18.44,23,11,23,0.00
2013-1-13,24,19,10,23,9,4,100,66,48,18.44,18.44,20,8,20,0.00
2013-1-14,32,16,8,12,5,1,76,64,40,18.44,18.44,10,2,10,0.00
2013-1-15,36,19,7,17,8,-1,100,65,38,18.44,18.44,8,1,8,0.00
2013-1-16,42,28,13,22,15,9,100,62,36,18.44,18.44,24,8,24,0.00
2013-1-17,38,30,25,29,18,10,92,61,38,0.00,0.00,19,7,21,0.00
2013-1-18,53,39,25,27,20,17,74,50,32,30.05,0.00,26,12,26,0.00
2013-1-19,58,45,36,31,24,17,60,44,30,30.14,29.87,26,11,28,0.00
2013-1-20,36,22,15,22,6,1,74,51,40,30.37,30.14,26,10,27,0.00
2013-1-21,17,13,9,10,0,-6,76,57,46,30.40,30.29,25,10,25,0.00
2013-1-22,19,12,6,2,-4,-10,48,48,46,30.46,30.32,17,4,17,0.00
2013-1-23,42,23,10,17,5,-6,80,46,36,30.40,30.11,28,8,30,0.00
2013-1-24,27,18,9,7,1,-7,48,46,42,30.61,30.23,26,7,26,0.00
2013-1-25,45,31,24,19,11,5,66,42,34,30.26,30.05,20,6,20,0.00
2013-1-26,42,26,13,17,8,0,64,47,36,30.40,30.26,15,5,15,0.00
2013-1-27,51,40,31,51,40,20,100,98,64,30.20,29.81,23,9,25,0.04
2013-1-28,68,59,50,60,54,50,100,86,54,29.93,29.72,19,6,19,0.00
2013-1-29,63,55,37,62,54,37,100,95,56,29.75,29.46,34,8,34,1.42
2013-1-30,37,30,23,37,24,10,100,80,52,29.87,29.34,32,12,32,0.24
2013-1-31,25,17,6,15,3,-9,68,53,44,30.37,29.87,27,12,29,0.24
2013-2-1,26,14,2,15,-1,-13,70,50,44,30.43,30.14,18,8,18,0.24
2013-2-2,33,28,23,22,11,6,92,51,40,30.14,30.02,20,8,22,0.24
2013-2-3,38,28,23,30,18,10,100,69,38,30.20,29.99,26,10,31,0.00
2013-2-4,41,32,25,22,18,14,80,56,42,29.99,29.75,28,9,28,0.00
2013-2-5,50,34,25,29,24,19,100,69,38,30.11,29.87,21,7,21,0.00
2013-2-6,54,39,25,36,25,18,100,64,32,30.17,29.99,15,5,17,0.00
2013-2-7,43,40,33,43,36,26,100,89,50,30.11,29.87,24,7,24,0.39
2013-2-8,36,32,30,33,28,23,100,84,60,30.35,30.11,23,7,23,0.00
2013-2-9,44,34,29,36,26,24,100,74,50,30.32,29.96,22,8,22,0.08
2013-2-10,61,46,36,51,34,17,100,73,28,29.96,29.43,32,13,34,0.31
2013-2-11,47,37,26,24,17,12,84,45,34,30.14,29.72,26,10,26,0.00
2013-2-12,45,32,23,30,24,18,100,75,40,30.14,29.93,9,2,9,0.00
2013-2-13,51,38,28,29,26,20,92,63,38,29.93,29.75,15,6,15,0.00
2013-2-14,52,41,33,32,26,16,88,57,36,30.08,29.75,22,8,22,0.00
2013-2-15,41,30,22,27,13,5,82,51,36,30.29,30.08,23,10,23,0.00
2013-2-16,37,25,15,14,10,5,74,54,38,30.26,30.14,17,5,17,0.00
2013-2-17,49,33,20,25,16,12,76,52,32,30.14,29.78,18,8,19,0.00
2013-2-18,57,42,25,49,30,14,100,63,40,29.90,29.46,33,13,33,0.51
2013-2-19,28,22,17,15,8,1,66,54,42,30.32,29.90,24,11,25,0.00
2013-2-20,25,17,7,10,2,-6,70,51,42,30.43,30.29,17,6,18,0.00
2013-2-21,30,23,14,30,19,7,100,87,66,30.32,29.81,20,5,20,0.00
2013-2-22,35,32,30,32,26,16,100,80,56,29.93,29.75,20,7,20,0.00
2013-2-23,39,24,9,16,12,6,100,65,38,30.02,29.99,13,4,13,0.04
2013-2-24,50,31,14,24,17,12,96,62,32,30.08,29.99,10,3,10,0.12
2013-2-25,55,36,21,31,24,18,100,65,30,30.08,29.78,19,4,19,0.00
2013-2-26,36,34,32,36,33,25,100,96,64,29.78,29.49,24,9,24,0.43
2013-2-27,37,33,30,34,31,29,100,96,78,29.90,29.70,15,4,15,0.04
2013-2-28,36,31,29,32,27,22,100,85,60,30.14,29.90,16,8,16,0.00
2013-3-1,38,29,21,30,23,13,100,81,48,30.26,30.11,16,8,17,0.00
2013-3-2,35,26,13,25,14,5,100,65,40,30.29,30.23,17,7,17,0.00
2013-3-3,43,28,10,22,13,4,100,57,36,30.23,29.99,11,3,11,0.00
2013-3-4,50,38,31,29,23,15,90,60,32,30.02,29.78,18,7,18,0.00
2013-3-5,34,32,29,33,25,15,100,77,50,30.17,29.87,27,8,28,0.04
2013-3-6,38,28,16,20,15,9,94,58,38,30.37,30.17,22,8,24,0.00
2013-3-7,49,30,14,28,19,13,100,69,32,30.40,30.32,11,3,11,0.00
2013-3-8,51,38,28,27,24,19,94,59,32,30.37,30.14,15,7,15,0.00
2013-3-9,52,43,37,41,35,25,100,74,48,30.14,29.72,21,9,21,0.94
2013-3-10,53,48,39,53,48,39,100,100,100,29.78,29.58,18,6,24,0.63
2013-3-11,39,34,29,39,29,19,100,85,60,29.96,29.70,17,8,21,0.00
2013-3-12,45,32,24,26,20,16,86,63,40,30.23,29.96,24,8,24,0.00
2013-3-13,40,31,23,17,14,7,66,50,36,30.43,30.23,22,8,22,0.00
2013-3-14,61,41,26,29,21,14,68,47,28,30.35,30.05,21,5,21,0.00
2013-3-15,68,50,33,44,31,23,88,54,24,30.08,29.67,12,3,12,0.00
2013-3-16,46,39,35,44,32,25,100,78,58,30.11,29.67,25,10,25,0.00
2013-3-17,42,34,31,35,26,17,100,73,42,30.14,29.84,21,6,21,0.04
2013-3-18,50,38,29,40,27,8,100,72,32,30.02,29.72,28,8,28,0.04
2013-3-19,47,34,24,20,12,5,48,40,34,30.20,29.99,17,7,18,0.00
2013-3-20,35,27,18,16,8,1,64,45,40,30.29,30.14,28,12,28,0.00
2013-3-21,46,27,13,19,9,2,72,47,34,30.14,29.96,15,3,15,0.00
2013-3-22,46,33,20,19,14,4,74,46,34,30.05,29.99,9,1,11,0.00
2013-3-23,59,42,32,35,21,14,100,46,28,30.05,29.90,20,4,20,0.00
2013-3-24,34,32,30,34,32,30,100,100,100,29.96,29.72,26,11,28,0.00
2013-3-25,37,32,30,31,24,14,100,75,44,30.20,29.87,19,10,21,0.00
2013-3-26,44,34,26,22,18,10,82,54,36,30.35,30.20,13,6,15,0.00
2013-3-27,52,36,23,30,20,13,92,56,32,30.37,30.29,8,2,8,0.00
2013-3-28,59,43,30,26,21,15,64,44,28,30.35,30.20,11,3,11,0.00
2013-3-29,68,48,31,34,30,22,100,55,24,30.26,30.17,11,2,13,0.00
2013-3-30,56,48,42,44,37,30,96,68,40,30.20,29.90,20,7,20,0.00
2013-3-31,66,53,40,50,36,18,100,61,26,30.02,29.84,22,8,24,0.00
2013-4-1,48,38,28,20,16,8,64,41,34,30.29,29.99,26,11,27,0.00
2013-4-2,52,36,21,23,16,7,84,47,32,30.35,30.26,16,4,17,0.00
2013-4-3,59,39,22,26,18,11,70,45,28,30.40,30.26,13,2,13,0.00
2013-4-4,66,48,29,30,21,11,56,36,26,30.26,30.02,11,2,11,0.00
2013-4-5,70,52,35,34,27,17,88,40,24,30.20,29.96,16,4,16,0.00
2013-4-6,73,62,52,34,28,23,32,28,22,29.96,29.67,35,12,37,0.00
2013-4-7,80,63,43,46,33,24,84,37,20,29.96,29.72,17,4,17,0.00
2013-4-8,77,64,54,60,51,42,100,66,30,29.81,29.61,32,6,32,0.75
2013-4-9,78,70,64,54,47,37,64,46,26,29.81,29.72,27,9,28,0.00
2013-4-10,69,54,47,61,50,44,100,91,50,29.93,29.67,33,7,34,1.57
2013-4-11,50,43,38,50,36,25,100,77,56,29.72,29.67,25,8,25,0.00
2013-4-12,46,39,36,30,27,25,72,60,54,29.99,29.70,17,7,17,0.00
2013-4-13,63,48,33,32,26,20,66,44,26,30.05,29.87,15,5,15,0.00
2013-4-14,81,64,47,58,35,28,100,38,18,29.87,29.46,28,11,30,0.43
2013-4-15,60,53,42,58,43,28,100,71,34,29.99,29.67,18,6,19,0.16
2013-4-16,53,46,40,43,35,26,100,67,36,30.17,29.99,18,6,18,0.08
2013-4-17,60,51,46,60,47,33,100,88,54,30.14,29.64,29,6,37,3.62
2013-4-18,65,53,38,65,49,25,100,87,58,29.78,29.43,30,9,30,2.40
2013-4-19,50,41,36,26,21,14,60,46,32,30.05,29.72,31,10,31,0.00
2013-4-20,59,44,28,26,22,14,86,44,28,30.29,30.05,12,3,12,0.00
2013-4-21,66,52,40,30,25,17,46,35,26,30.32,30.17,19,9,20,0.00
2013-4-22,74,60,48,33,27,20,38,29,22,30.20,29.87,17,7,17,0.00
2013-4-23,57,44,38,46,39,24,100,87,28,30.05,29.90,24,10,24,0.63
2013-4-24,56,44,35,39,26,18,100,55,30,30.17,29.99,20,8,20,0.00
2013-4-25,67,51,38,33,25,18,76,38,24,30.29,30.14,20,6,20,0.00
2013-4-26,65,56,49,36,28,20,52,35,26,30.29,30.17,26,10,26,0.00
2013-4-27,58,52,46,52,45,35,100,78,52,30.26,29.93,9,2,10,0.04
2013-4-28,72,59,52,53,45,32,100,67,28,29.93,29.81,13,5,14,0.00
2013-4-29,86,67,50,50,43,35,100,51,22,29.87,29.58,22,9,22,0.00
2013-4-30,88,75,66,48,42,31,52,32,16,29.81,29.64,26,10,26,0.00
2013-5-1,88,73,58,44,36,27,42,26,16,30.08,29.81,33,7,33,0.00
2013-5-2,58,48,38,41,32,24,100,59,34,30.26,30.05,28,13,28,0.24
2013-5-3,44,40,37,44,40,37,100,100,100,30.20,29.75,24,12,24,2.01
2013-5-4,55,48,42,55,45,37,100,92,52,30.02,29.75,10,3,10,0.04
2013-5-5,72,58,46,59,48,35,100,76,28,30.02,29.84,21,6,24,0.08
2013-5-6,77,63,52,57,43,30,100,56,20,29.99,29.87,22,6,22,0.04
2013-5-7,86,68,53,51,37,27,92,37,16,30.02,29.87,10,2,10,0.00
2013-5-8,85,68,53,46,38,30,64,37,16,29.99,29.84,13,3,13,0.00
2013-5-9,72,64,59,66,56,43,100,76,46,29.90,29.78,14,5,15,0.47
2013-5-10,61,57,49,60,50,40,100,77,48,30.02,29.81,22,7,22,0.04
2013-5-11,63,54,45,57,35,19,100,56,26,30.14,29.99,31,10,31,0.00
2013-5-12,63,50,38,29,22,14,48,33,26,30.23,30.08,18,6,21,0.04
2013-5-13,77,60,41,37,30,20,80,35,20,30.20,29.90,17,6,17,0.04
2013-5-14,91,76,59,45,38,26,48,26,18,29.90,29.58,22,9,23,0.00
2013-5-15,92,79,67,45,38,31,34,24,18,29.81,29.67,17,6,21,0.00
2013-5-16,90,76,67,64,48,38,90,41,20,29.87,29.72,17,6,17,0.00
2013-5-17,84,72,59,59,43,37,74,38,22,29.90,29.81,14,4,14,0.00
2013-5-18,88,75,64,68,52,36,100,53,22,29.93,29.78,15,5,15,0.00
2013-5-19,91,78,68,58,49,36,64,38,20,29.81,29.58,28,8,28,0.00
2013-5-20,86,70,62,69,52,36,100,60,22,29.78,29.58,25,10,28,0.75
2013-5-21,81,70,64,65,49,31,100,53,20,29.70,29.61,21,9,21,0.00
2013-5-22,73,65,59,56,42,33,82,44,26,29.81,29.61,15,5,15,0.20
2013-5-23,71,61,54,61,43,31,100,56,28,30.17,29.81,23,7,23,0.20
2013-5-24,73,60,47,52,36,25,100,49,22,30.37,30.17,11,3,12,0.20
2013-5-25,69,58,52,53,40,25,100,56,28,30.32,30.08,22,4,22,0.43
2013-5-26,74,62,52,68,49,36,100,67,28,30.14,29.84,10,2,10,0.31
2013-5-27,79,69,64,74,62,42,100,82,30,29.93,29.55,34,5,36,3.03
2013-5-28,80,72,62,72,58,49,100,67,40,29.87,29.61,26,9,30,1.81
2013-5-29,88,76,63,66,50,37,100,49,22,29.87,29.70,23,9,26,0.04
2013-5-30,85,72,63,65,51,36,100,53,22,29.75,29.64,31,11,38,0.94
2013-5-31,76,67,62,71,65,56,100,94,54,29.84,29.61,17,5,17,0.83
2013-6-1,79,70,64,68,56,31,100,68,20,29.70,29.64,16,7,16,0.00
2013-6-2,69,62,52,44,35,29,52,37,30,29.96,29.87,19,8,19,0.00
2013-6-3,77,64,50,54,38,27,94,45,20,30.05,29.90,8,2,10,0.00
2013-6-4,82,67,54,46,39,31,74,41,18,30.02,29.90,13,4,13,0.00
2013-6-5,83,71,57,57,44,36,96,43,22,29.96,29.78,10,3,10,0.00
2013-6-6,79,70,62,67,42,29,100,44,20,29.81,29.78,17,7,17,0.00
2013-6-7,78,66,58,56,42,28,88,46,20,29.87,29.81,17,6,17,0.00
2013-6-8,85,70,54,69,42,30,100,48,16,29.90,29.78,16,4,16,0.00
2013-6-9,78,68,63,64,46,34,100,49,26,29.81,29.67,15,6,16,0.28
2013-6-10,88,72,64,67,51,32,100,56,20,29.81,29.70,15,3,15,0.00
2013-6-11,95,75,63,63,51,40,96,51,18,29.84,29.72,17,6,17,0.00
2013-6-12,98,84,71,60,47,38,68,30,16,29.81,29.58,27,8,29,0.00
2013-6-13,90,77,67,68,41,31,100,29,16,29.93,29.70,31,7,31,0.00
2013-6-14,85,71,62,65,48,33,86,48,20,30.02,29.81,15,3,16,0.12
2013-6-15,96,76,66,71,55,40,100,57,18,29.99,29.78,27,6,32,0.79
2013-6-16,95,78,68,73,56,39,100,57,18,29.90,29.81,12,3,12,0.43
2013-6-17,93,79,68,83,56,39,100,57,18,29.90,29.81,10,2,11,0.43
2013-6-18,87,76,67,73,51,37,100,50,22,29.93,29.84,13,5,15,0.00
2013-6-19,92,76,61,59,46,31,86,40,16,30.02,29.93,9,1,9,0.00
2013-6-20,93,80,67,52,44,39,46,30,18,30.02,29.90,15,5,16,0.00
2013-6-21,97,85,75,56,46,40,44,28,18,29.96,29.84,17,8,18,0.00
2013-6-22,98,83,73,59,49,36,54,33,16,29.96,29.84,20,8,20,0.00
2013-6-23,94,75,69,71,53,38,100,52,18,29.96,29.78,29,6,29,0.35
2013-6-24,96,80,70,66,52,39,88,42,18,29.96,29.75,18,8,18,0.00
2013-6-25,95,83,75,60,49,40,60,33,18,29.84,29.70,17,8,17,0.00
2013-6-26,94,82,71,71,52,42,78,39,18,29.72,29.64,21,5,21,0.00
2013-6-27,93,81,69,63,50,40,76,39,18,29.84,29.72,10,3,13,0.00
2013-6-28,87,78,69,60,46,31,72,36,16,29.78,29.64,27,7,27,0.00
2013-6-29,83,70,62,68,48,32,100,52,22,29.72,29.58,28,8,28,0.20
2013-6-30,80,70,65,66,54,36,100,65,24,29.90,29.72,20,7,20,0.08
2013-7-1,81,70,58,66,43,28,100,45,18,29.96,29.90,21,7,21,0.00
2013-7-2,86,70,57,48,38,31,70,36,16,30.02,29.93,18,5,20,0.00
2013-7-3,93,74,60,47,42,31,60,34,16,29.99,29.90,9,2,9,0.00
2013-7-4,93,76,63,59,44,32,80,37,16,29.99,29.90,11,3,11,0.00
2013-7-5,90,77,64,56,43,32,66,32,18,29.96,29.90,12,4,12,0.00
2013-7-6,92,78,67,64,48,36,88,41,18,29.93,29.84,13,5,13,0.00
2013-7-7,96,82,69,50,44,39,48,29,18,29.93,29.87,13,6,13,0.00
2013-7-8,92,81,74,61,46,39,62,31,18,29.96,29.90,15,5,15,0.00
2013-7-9,96,86,76,60,47,40,56,27,18,29.93,29.78,15,6,17,0.00
2013-7-10,90,81,64,76,46,31,88,32,18,29.96,29.78,17,5,17,0.08
2013-7-11,92,76,59,68,47,31,100,44,18,30.02,29.96,9,1,9,0.00
2013-7-12,92,74,62,56,45,31,78,41,16,30.05,29.96,12,2,12,0.00
2013-7-13,93,77,61,52,43,32,58,34,18,30.02,29.96,9,2,9,0.00
2013-7-14,94,74,64,67,53,39,100,55,18,30.08,29.99,8,1,8,0.00
2013-7-15,96,83,69,75,53,40,100,45,18,30.14,30.05,8,2,9,0.00
2013-7-16,96,84,75,75,55,40,96,45,18,30.20,30.14,10,3,13,0.00
2013-7-17,103,87,74,65,51,42,70,34,14,30.23,30.08,7,2,8,0.00
2013-7-18,100,87,75,65,50,40,68,33,14,30.14,29.93,10,4,10,0.00
2013-7-19,99,87,76,58,47,40,54,27,16,29.93,29.75,14,6,15,0.00
2013-7-20,96,82,70,62,48,38,66,34,18,29.87,29.78,12,3,13,0.00
2013-7-21,85,74,68,74,61,45,100,68,26,29.87,29.72,13,2,13,0.24
2013-7-22,95,80,66,78,57,42,100,57,18,29.78,29.67,13,3,13,0.00
2013-7-23,86,75,64,71,50,36,100,47,22,29.87,29.70,16,5,17,0.00
2013-7-24,82,71,61,61,44,30,92,43,18,29.96,29.87,14,2,14,0.00
2013-7-25,90,73,57,59,44,31,92,42,18,30.05,29.96,9,2,10,0.00
2013-7-26,85,72,62,77,48,35,100,43,22,29.96,29.84,23,5,25,0.79
2013-7-27,74,64,53,59,41,28,100,50,22,29.99,29.87,17,6,17,0.00
2013-7-28,79,65,51,51,39,28,88,46,20,29.99,29.90,15,4,15,0.00
2013-7-29,86,67,53,69,46,31,100,55,18,30.08,29.99,8,2,10,0.00
2013-7-30,88,74,67,73,59,40,100,67,20,30.02,29.90,13,3,13,0.71
2013-7-31,80,74,68,72,58,39,100,66,24,29.99,29.93,10,4,11,0.00
2013-8-1,92,77,66,76,52,32,100,52,18,29.99,29.87,10,2,10,0.00
2013-8-2,90,76,69,70,50,40,100,43,20,29.87,29.81,15,6,17,0.00
2013-8-3,85,74,62,71,52,31,100,56,18,30.08,29.87,13,3,14,0.00
2013-8-4,88,72,59,69,49,31,100,54,18,30.11,29.99,8,1,8,0.00
2013-8-5,86,75,66,70,51,40,94,46,22,30.02,29.75,14,5,15,0.00
2013-8-6,92,80,70,82,59,40,100,59,18,29.84,29.75,14,4,14,0.00
2013-8-7,92,80,73,87,63,42,100,61,22,29.81,29.72,13,3,14,0.16
2013-8-8,86,75,64,70,54,40,100,55,22,29.93,29.87,9,3,10,0.16
2013-8-9,90,76,68,76,56,35,100,58,20,30.02,29.90,8,1,8,0.16
2013-8-10,84,73,62,66,48,31,100,47,18,30.11,30.02,17,4,17,0.16
2013-8-11,91,75,60,65,47,33,92,44,16,30.08,29.96,10,2,10,0.16
2013-8-12,86,74,65,64,49,38,88,44,22,29.99,29.84,15,3,15,0.16
2013-8-13,84,70,57,66,46,28,100,50,18,30.08,29.90,14,4,15,0.00
2013-8-14,58,55,52,47,46,42,80,70,56,30.11,30.08,4,0,4,0.00
2013-8-15,85,67,57,53,41,29,76,44,16,30.11,29.99,8,1,9,0.00
2013-8-16,88,70,56,64,45,31,100,48,16,30.11,30.05,8,1,11,0.00
2013-8-17,88,70,54,68,46,31,100,53,16,30.14,30.05,8,1,8,0.00
2013-8-18,91,72,56,66,47,36,100,50,20,30.11,30.02,9,1,9,0.00
2013-8-19,91,76,62,66,49,38,100,46,20,30.05,29.93,11,2,11,0.00
2013-8-20,93,78,66,60,49,39,78,41,18,30.02,29.93,13,5,13,0.00
2013-8-21,94,80,69,59,48,39,70,37,18,30.02,29.93,14,5,14,0.00
2013-8-22,93,80,71,70,54,42,82,46,18,30.02,29.93,10,2,10,0.00
2013-8-23,97,82,70,72,53,39,100,44,16,30.05,29.96,9,1,10,0.00
2013-8-24,96,81,69,61,50,39,74,40,18,30.11,30.02,12,4,12,0.00
2013-8-25,96,81,70,59,47,38,64,34,18,30.17,30.05,12,5,13,0.00
2013-8-26,96,82,69,62,49,40,72,37,18,30.11,29.96,13,6,13,0.00
2013-8-27,97,84,74,65,49,33,72,35,16,29.99,29.87,16,7,17,0.00
2013-8-28,101,84,70,58,45,37,62,28,14,29.96,29.87,11,4,11,0.00
2013-8-29,103,84,71,68,49,38,68,33,14,29.96,29.84,10,2,10,0.00
2013-8-30,104,88,77,73,53,40,86,39,14,29.87,29.72,10,4,13,0.00
2013-8-31,100,85,73,64,48,40,74,32,16,29.75,29.64,12,4,12,0.00
2013-9-1,93,79,70,80,54,36,100,52,18,29.81,29.72,11,3,13,0.00
2013-9-2,86,73,57,64,40,28,100,34,16,29.93,29.81,15,5,15,0.00
2013-9-3,88,67,52,65,43,28,100,52,16,30.05,29.93,8,1,10,0.00
2013-9-4,92,73,54,70,43,30,100,42,16,30.08,29.99,8,1,8,0.00
2013-9-5,96,76,60,55,42,30,76,34,16,30.11,30.05,8,1,9,0.00
2013-9-6,95,78,65,56,42,33,68,29,16,30.08,29.93,12,3,13,0.00
2013-9-7,98,83,65,54,42,38,66,25,16,29.96,29.78,14,6,14,0.00
2013-9-8,95,84,73,68,48,40,84,33,18,29.87,29.78,15,5,15,0.08
2013-9-9,102,86,75,62,49,34,62,31,14,29.87,29.78,17,7,17,0.00
2013-9-10,99,87,74,46,41,33,32,20,16,29.99,29.87,17,6,19,0.00
2013-9-11,100,84,0,46,40,0,38,21,16,30.02,29.93,14,4,14,0.00
2013-9-12,78,13,0,40,7,0,26,4,26,30.05,29.96,17,6,17,0.43
2013-9-13,0,0,0,0,0,0,0,0,100,30.11,30.02,15,3,15,0.31
2013-9-14,0,0,0,0,0,0,0,0,100,30.14,29.93,12,3,12,0.31
2013-9-15,0,0,0,0,0,0,0,0,100,30.11,29.90,13,6,14,0.04
2013-9-16,0,0,0,0,0,0,0,0,100,30.26,30.11,10,2,13,0.00
2013-9-17,0,0,0,0,0,0,0,0,100,30.20,29.99,9,2,10,0.00
2013-9-18,0,0,0,0,0,0,0,0,100,29.99,29.81,17,7,17,0.00
2013-9-19,0,0,0,0,0,0,0,0,100,29.90,29.72,28,9,28,1.06
2013-9-20,0,0,0,0,0,0,0,0,100,29.87,29.78,14,4,14,0.04
2013-9-21,0,0,0,0,0,0,0,0,100,29.96,29.81,15,4,15,0.00
2013-9-22,0,0,0,0,0,0,0,0,100,29.99,29.81,8,1,10,0.00
2013-9-23,79,14,0,55,8,0,48,8,30,29.96,29.06,15,3,16,0.00
2013-9-24,86,68,54,47,42,30,72,41,26,29.12,28.97,13,3,13,0.00
2013-9-25,90,69,56,59,50,39,100,56,26,29.12,29.00,13,2,13,0.00
2013-9-26,89,72,59,60,49,40,100,50,26,29.18,29.06,16,3,16,0.00
2013-9-27,89,74,63,54,46,35,68,39,26,29.26,29.15,17,5,17,0.00
2013-9-28,81,69,59,72,52,34,100,61,28,29.23,29.09,18,6,20,0.28
2013-9-29,80,63,52,66,47,29,100,65,28,29.29,29.18,9,1,10,0.00
2013-9-30,82,65,46,56,41,28,84,45,28,29.18,29.03,14,4,14,0.00
2013-10-1,89,74,65,70,56,40,100,60,26,29.18,29.06,14,6,15,0.00
2013-10-2,91,76,67,80,60,42,100,68,24,29.23,29.12,13,3,13,0.04
2013-10-3,85,74,68,73,61,42,100,70,26,29.12,28.97,20,4,20,0.31
2013-10-4,93,79,72,73,58,43,100,58,22,29.12,29.03,18,7,18,0.00
2013-10-5,76,66,51,68,55,41,96,68,44,29.12,29.03,14,6,15,0.08
2013-10-6,59,50,43,53,38,25,100,67,34,29.12,29.03,20,6,20,31.91
2013-10-7,75,60,52,55,42,28,100,58,28,29.32,29.12,12,4,13,0.00
2013-10-8,81,64,50,47,38,30,80,40,28,29.41,29.26,15,5,15,0.00
2013-10-9,79,62,49,47,39,29,80,45,28,29.38,29.26,11,2,11,0.00
2013-10-10,82,66,53,56,43,33,94,47,28,29.35,29.15,14,3,14,0.00
2013-10-11,82,69,59,64,48,36,100,54,28,29.21,29.03,17,6,17,0.00
2013-10-12,74,65,48,59,41,24,80,43,28,29.44,29.09,16,6,16,0.00
2013-10-13,75,54,41,50,34,22,100,50,28,29.68,29.44,11,2,12,0.00
2013-10-14,72,57,42,44,30,20,58,37,28,29.59,29.21,12,3,13,0.00
2013-10-15,71,62,47,69,44,26,100,58,30,29.21,29.06,19,7,19,0.20
2013-10-16,59,51,46,34,28,25,58,40,34,29.26,29.18,15,5,15,0.00
2013-10-17,70,55,47,53,38,26,100,58,30,29.23,29.06,14,5,17,0.04
2013-10-18,60,48,42,46,33,22,100,61,34,29.32,29.21,13,5,13,0.04
2013-10-19,61,48,39,45,33,22,100,64,32,29.29,29.12,17,7,21,0.04
2013-10-20,77,58,44,43,33,24,58,40,28,29.15,28.94,25,8,25,0.04
2013-10-21,58,48,39,33,25,19,58,40,34,29.26,29.06,17,6,20,0.04
2013-10-22,56,44,37,45,33,25,100,67,34,29.26,29.03,24,7,24,0.04
2013-10-23,51,41,35,41,30,19,100,69,38,29.35,29.26,15,5,16,0.04
2013-10-24,47,38,28,38,20,11,90,50,38,29.62,29.35,20,6,20,0.00
2013-10-25,60,42,26,34,26,20,88,57,34,29.68,29.35,18,5,18,0.04
2013-10-26,62,48,32,32,24,14,46,38,32,29.38,29.23,22,7,24,0.00
2013-10-27,63,45,29,37,26,14,90,51,32,29.38,29.18,14,4,15,0.04
2013-10-28,75,52,33,43,27,14,60,38,28,29.44,29.26,9,1,10,0.04
2013-10-29,60,52,43,58,33,20,100,52,34,29.44,29.26,8,2,9,0.04
2013-10-30,72,65,58,72,65,58,100,100,92,29.26,28.97,17,4,17,0.71
2013-10-31,68,58,47,68,58,45,100,99,84,28.97,28.67,17,7,17,0.79
2013-11-1,60,50,45,49,37,23,100,66,34,29.09,28.82,14,6,15,0.04
2013-11-2,57,46,36,41,29,17,88,52,34,29.41,29.06,25,6,25,0.04
2013-11-3,61,46,33,37,28,22,94,53,34,29.47,29.29,18,5,20,0.04
2013-11-4,61,54,48,32,27,24,38,36,32,29.38,29.26,17,8,26,0.04
2013-11-5,61,58,54,60,52,32,100,86,40,29.41,29.12,20,8,22,0.20
2013-11-6,62,47,32,62,38,20,100,74,38,29.53,29.09,21,8,22,0.59
2013-11-7,56,41,31,40,26,14,100,61,34,29.56,29.47,15,4,15,0.04
2013-11-8,59,44,30,33,26,20,96,54,34,29.56,29.18,26,7,26,0.00
2013-11-9,68,54,45,36,28,22,54,36,30,29.50,29.18,23,8,23,0.04
2013-11-10,57,44,33,29,22,16,70,43,34,29.65,29.47,15,4,15,0.04
2013-11-11,61,43,26,41,26,9,100,54,32,29.83,29.41,28,10,28,0.04
2013-11-12,36,24,17,16,9,1,70,52,40,30.06,29.83,17,6,22,0.04
2013-11-13,49,34,17,24,16,2,66,47,38,29.91,29.44,20,9,20,0.00
2013-11-14,58,44,34,30,21,14,44,40,34,29.47,29.21,25,11,26,0.00
2013-11-15,61,48,42,40,25,20,72,40,34,29.26,29.12,17,8,18,0.00
2013-11-16,64,59,48,53,45,36,78,62,36,29.12,28.76,28,12,28,0.04
2013-11-17,74,59,44,60,43,25,90,58,30,29.21,28.53,30,11,32,0.16
2013-11-18,54,43,31,40,27,13,90,56,36,29.56,29.21,17,5,17,0.00
2013-11-19,55,40,27,29,22,16,82,51,36,29.59,29.41,13,5,16,0.00
2013-11-20,45,41,38,42,28,17,100,64,42,29.44,29.21,17,7,17,0.31
2013-11-21,52,48,42,52,40,26,100,76,44,29.53,29.26,19,5,20,0.20
2013-11-22,42,34,24,42,28,17,100,79,44,29.83,29.53,21,10,24,0.00
2013-11-23,26,21,11,20,6,-2,86,53,42,30.03,29.83,27,10,28,0.00
2013-11-24,32,21,8,16,4,-5,88,49,40,30.00,29.65,14,4,14,0.00
2013-11-25,38,32,26,17,12,6,46,44,40,29.65,29.38,17,8,17,0.00
2013-11-26,37,28,19,24,11,1,76,50,40,29.56,29.35,28,9,28,0.00
2013-11-27,32,21,13,13,4,-2,54,46,40,29.65,29.44,14,6,15,0.00
2013-11-28,42,30,18,21,10,2,50,44,40,29.77,29.38,15,7,19,0.00
2013-11-29,46,30,14,23,14,2,84,53,40,29.85,29.56,14,4,14,0.00
2013-11-30,57,42,33,29,22,14,74,48,34,29.56,29.29,15,5,16,0.00
2013-12-1,53,40,28,44,26,16,100,63,36,29.38,29.18,8,1,8,0.00
2013-12-2,57,43,35,38,28,20,82,57,34,29.21,28.88,14,3,14,0.00
2013-12-3,58,49,39,52,44,32,100,85,38,28.94,28.79,16,5,17,0.00
2013-12-4,63,50,29,56,41,13,100,73,34,29.18,28.76,20,7,20,0.00
2013-12-5,29,23,20,16,4,1,56,44,42,29.59,29.18,19,10,20,0.00
2013-12-6,20,16,9,2,-1,-6,48,47,44,29.88,29.59,21,10,24,0.00
2013-12-7,27,13,5,7,-4,-10,48,47,42,30.00,29.77,15,6,16,0.00
2013-12-8,27,22,16,21,9,-1,84,58,42,29.77,29.26,11,4,11,0.00
2013-12-9,24,16,8,15,2,-8,76,54,44,29.59,29.35,13,6,15,0.00
2013-12-10,34,20,6,15,2,-10,48,46,40,29.56,29.38,20,7,24,0.00
2013-12-11,27,18,3,10,0,-12,50,46,42,29.88,29.50,26,8,32,0.00
2013-12-12,44,23,3,21,5,-12,48,45,40,29.88,29.47,17,7,21,0.00
2013-12-13,38,33,24,37,22,6,100,67,42,29.47,29.23,13,5,15,0.04
2013-12-14,37,30,18,37,27,11,100,88,66,29.44,29.18,0,0,0,0.00
2013-12-15,39,23,14,19,14,6,90,69,40,29.44,29.32,0,0,0,0.00
2013-12-16,34,26,20,28,18,9,100,77,44,29.41,29.26,0,0,0,0.00
2013-12-17,45,31,21,35,20,3,100,68,40,29.50,29.38,16,2,16,0.20
2013-12-18,49,36,21,24,16,3,50,43,38,29.53,29.09,24,10,24,0.20
2013-12-19,55,48,42,44,30,20,72,49,36,29.15,28.97,15,8,17,0.00
2013-12-20,53,41,33,50,40,33,100,96,68,29.18,28.97,13,5,14,0.08
2013-12-21,37,33,30,37,32,26,100,97,82,29.18,28.91,0,0,0,0.04
2013-12-22,37,30,18,37,26,6,100,86,54,29.62,28.94,0,0,0,0.00
2013-12-23,19,10,2,10,-1,-13,74,60,48,29.88,29.59,0,0,0,0.00
2013-12-24,21,11,-3,6,-5,-17,52,48,44,29.88,29.56,0,0,0,0.00
2013-12-25,34,30,22,31,22,6,94,74,46,29.59,29.44,0,0,0,0.00
2013-12-26,42,32,22,27,19,10,88,60,42,29.59,29.41,20,5,23,0.08
2013-12-27,51,39,31,37,26,18,100,64,38,29.62,29.44,20,7,20,0.00
2013-12-28,56,44,36,29,23,17,58,44,34,29.47,29.15,18,9,21,0.00
2013-12-29,40,22,8,30,7,-8,88,53,42,29.59,29.12,26,12,28,0.00
2013-12-30,25,14,3,6,-3,-13,48,46,44,29.65,29.41,13,5,13,0.00
2013-12-31,40,26,14,19,10,2,74,53,40,29.65,29.35,12,5,13,0.00
2014-1-1,26,20,16,17,12,4,88,70,42,29.47,29.38,23,8,24,0.00
2014-1-2,18,11,-2,10,-3,-17,76,53,46,29.74,29.47,22,9,26,0.00